sensor_id;sensor_type;location;lat;lon;timestamp;temperature;humidity
1225;DHT22;602;48.000;7.840;2023-04-15T00:01:26;8.10;99.90
1225;DHT22;602;48.000;7.840;2023-04-15T00:03:55;8.00;99.90
1225;DHT22;602;48.000;7.840;2023-04-15T00:06:22;8.10;99.90
1225;DHT22;602;48.000;7.840;2023-04-15T00:08:49;8.00;99.90
1225;DHT22;602;48.000;7.840;2023-04-15T00:11:16;8.00;99.90
1225;DHT22;602;48.000;7.840;2023-04-15T00:13:45;7.90;99.90
1225;DHT22;602;48.000;7.840;2023-04-15T00:16:12;8.00;99.90
1225;DHT22;602;48.000;7.840;2023-04-15T00:18:40;8.10;99.90
1225;DHT22;602;48.000;7.840;2023-04-15T00:21:07;8.10;99.90
1225;DHT22;602;48.000;7.840;2023-04-15T00:23:34;8.10;99.90
1225;DHT22;602;48.000;7.840;2023-04-15T00:26:01;8.10;99.90
1225;DHT22;602;48.000;7.840;2023-04-15T00:28:28;8.10;99.90
1225;DHT22;602;48.000;7.840;2023-04-15T00:30:56;8.10;99.90
1225;DHT22;602;48.000;7.840;2023-04-15T00:33:23;8.10;99.90
1225;DHT22;602;48.000;7.840;2023-04-15T00:35:52;8.00;99.90
1225;DHT22;602;48.000;7.840;2023-04-15T00:38:19;8.00;99.90
1225;DHT22;602;48.000;7.840;2023-04-15T00:40:46;8.00;99.90
1225;DHT22;602;48.000;7.840;2023-04-15T00:43:12;7.90;99.90
1225;DHT22;602;48.000;7.840;2023-04-15T00:45:40;7.90;99.90
1225;DHT22;602;48.000;7.840;2023-04-15T00:48:07;7.90;99.90
1225;DHT22;602;48.000;7.840;2023-04-15T00:50:35;7.90;99.90
1225;DHT22;602;48.000;7.840;2023-04-15T00:53:04;7.90;99.90
1225;DHT22;602;48.000;7.840;2023-04-15T00:55:31;8.00;99.90
1225;DHT22;602;48.000;7.840;2023-04-15T00:57:58;8.00;99.90
1225;DHT22;602;48.000;7.840;2023-04-15T01:00:25;8.00;99.90
1225;DHT22;602;48.000;7.840;2023-04-15T01:02:52;8.00;99.90
1225;DHT22;602;48.000;7.840;2023-04-15T01:05:19;8.00;99.90
1225;DHT22;602;48.000;7.840;2023-04-15T01:07:46;8.10;99.90
1225;DHT22;602;48.000;7.840;2023-04-15T01:10:14;8.10;99.90
1225;DHT22;602;48.000;7.840;2023-04-15T01:12:41;8.00;99.90
1225;DHT22;602;48.000;7.840;2023-04-15T01:15:09;8.10;99.90
1225;DHT22;602;48.000;7.840;2023-04-15T01:17:36;7.90;99.90
1225;DHT22;602;48.000;7.840;2023-04-15T01:20:05;7.90;99.90
1225;DHT22;602;48.000;7.840;2023-04-15T01:22:34;7.80;99.90
1225;DHT22;602;48.000;7.840;2023-04-15T01:25:05;7.90;99.90
1225;DHT22;602;48.000;7.840;2023-04-15T01:27:34;7.90;99.90
1225;DHT22;602;48.000;7.840;2023-04-15T01:30:01;8.00;99.90
1225;DHT22;602;48.000;7.840;2023-04-15T01:32:29;8.10;99.90
1225;DHT22;602;48.000;7.840;2023-04-15T01:34:56;7.90;99.90
1225;DHT22;602;48.000;7.840;2023-04-15T01:37:23;7.80;99.90
1225;DHT22;602;48.000;7.840;2023-04-15T01:39:50;7.90;99.90
1225;DHT22;602;48.000;7.840;2023-04-15T01:42:17;7.90;99.90
1225;DHT22;602;48.000;7.840;2023-04-15T01:44:45;7.90;99.90
1225;DHT22;602;48.000;7.840;2023-04-15T01:47:12;7.90;99.90
1225;DHT22;602;48.000;7.840;2023-04-15T01:49:39;8.00;99.90
1225;DHT22;602;48.000;7.840;2023-04-15T01:52:06;8.10;99.90
1225;DHT22;602;48.000;7.840;2023-04-15T01:54:33;8.10;99.90
1225;DHT22;602;48.000;7.840;2023-04-15T01:57:00;7.90;99.90
1225;DHT22;602;48.000;7.840;2023-04-15T01:59:28;7.90;99.90
1225;DHT22;602;48.000;7.840;2023-04-15T02:01:57;7.90;99.90
1225;DHT22;602;48.000;7.840;2023-04-15T02:04:24;7.90;99.90
1225;DHT22;602;48.000;7.840;2023-04-15T02:06:51;8.00;99.90
1225;DHT22;602;48.000;7.840;2023-04-15T02:09:18;8.10;99.90
1225;DHT22;602;48.000;7.840;2023-04-15T02:11:45;8.10;99.90
1225;DHT22;602;48.000;7.840;2023-04-15T02:14:12;8.20;99.90
1225;DHT22;602;48.000;7.840;2023-04-15T02:16:38;8.20;99.90
1225;DHT22;602;48.000;7.840;2023-04-15T02:19:07;8.30;99.90
1225;DHT22;602;48.000;7.840;2023-04-15T02:21:34;8.40;99.90
1225;DHT22;602;48.000;7.840;2023-04-15T02:24:00;8.50;99.90
1225;DHT22;602;48.000;7.840;2023-04-15T02:26:28;8.40;99.90
1225;DHT22;602;48.000;7.840;2023-04-15T02:28:57;8.20;99.90
1225;DHT22;602;48.000;7.840;2023-04-15T02:31:24;8.20;99.90
1225;DHT22;602;48.000;7.840;2023-04-15T02:33:51;8.10;99.90
1225;DHT22;602;48.000;7.840;2023-04-15T02:36:19;8.00;99.90
1225;DHT22;602;48.000;7.840;2023-04-15T02:38:46;8.10;99.90
1225;DHT22;602;48.000;7.840;2023-04-15T02:41:13;8.10;99.90
1225;DHT22;602;48.000;7.840;2023-04-15T02:43:40;8.20;99.90
1225;DHT22;602;48.000;7.840;2023-04-15T02:46:06;8.30;99.90
1225;DHT22;602;48.000;7.840;2023-04-15T02:48:37;8.30;99.90
1225;DHT22;602;48.000;7.840;2023-04-15T02:51:11;8.30;99.90
1225;DHT22;602;48.000;7.840;2023-04-15T02:53:39;8.30;99.90
1225;DHT22;602;48.000;7.840;2023-04-15T02:56:07;8.20;99.90
1225;DHT22;602;48.000;7.840;2023-04-15T02:58:34;8.20;99.90
1225;DHT22;602;48.000;7.840;2023-04-15T03:01:01;8.10;99.90
1225;DHT22;602;48.000;7.840;2023-04-15T03:03:28;8.10;99.90
1225;DHT22;602;48.000;7.840;2023-04-15T03:05:55;8.10;99.90
1225;DHT22;602;48.000;7.840;2023-04-15T03:08:22;8.20;99.90
1225;DHT22;602;48.000;7.840;2023-04-15T03:10:50;8.10;99.90
1225;DHT22;602;48.000;7.840;2023-04-15T03:13:18;8.10;99.90
1225;DHT22;602;48.000;7.840;2023-04-15T03:15:45;8.00;99.90
1225;DHT22;602;48.000;7.840;2023-04-15T03:18:12;8.00;99.90
1225;DHT22;602;48.000;7.840;2023-04-15T03:20:39;8.10;99.90
1225;DHT22;602;48.000;7.840;2023-04-15T03:23:06;8.00;99.90
1225;DHT22;602;48.000;7.840;2023-04-15T03:25:33;8.10;99.90
1225;DHT22;602;48.000;7.840;2023-04-15T03:28:03;8.20;99.90
1225;DHT22;602;48.000;7.840;2023-04-15T03:30:30;8.30;99.90
1225;DHT22;602;48.000;7.840;2023-04-15T03:32:57;8.40;99.90
1225;DHT22;602;48.000;7.840;2023-04-15T03:35:24;8.40;99.90
1225;DHT22;602;48.000;7.840;2023-04-15T03:37:51;8.50;99.90
1225;DHT22;602;48.000;7.840;2023-04-15T03:40:18;8.40;99.90
1225;DHT22;602;48.000;7.840;2023-04-15T03:42:45;8.40;99.90
1225;DHT22;602;48.000;7.840;2023-04-15T03:45:13;8.40;99.90
1225;DHT22;602;48.000;7.840;2023-04-15T03:47:40;8.40;99.90
1225;DHT22;602;48.000;7.840;2023-04-15T03:50:07;8.40;99.90
1225;DHT22;602;48.000;7.840;2023-04-15T03:52:34;8.40;99.90
1225;DHT22;602;48.000;7.840;2023-04-15T03:55:01;8.40;99.90
1225;DHT22;602;48.000;7.840;2023-04-15T03:57:28;8.40;99.90
1225;DHT22;602;48.000;7.840;2023-04-15T03:59:55;8.40;99.90
1225;DHT22;602;48.000;7.840;2023-04-15T04:02:23;8.40;99.90
1225;DHT22;602;48.000;7.840;2023-04-15T04:04:50;8.40;99.90
1225;DHT22;602;48.000;7.840;2023-04-15T04:07:17;8.40;99.90
1225;DHT22;602;48.000;7.840;2023-04-15T04:09:44;8.50;99.90
1225;DHT22;602;48.000;7.840;2023-04-15T04:12:11;8.50;99.90
1225;DHT22;602;48.000;7.840;2023-04-15T04:14:38;8.50;99.90
1225;DHT22;602;48.000;7.840;2023-04-15T04:17:05;8.60;99.90
1225;DHT22;602;48.000;7.840;2023-04-15T04:19:33;8.70;99.90
1225;DHT22;602;48.000;7.840;2023-04-15T04:22:00;8.70;99.90
1225;DHT22;602;48.000;7.840;2023-04-15T04:24:27;8.70;99.90
1225;DHT22;602;48.000;7.840;2023-04-15T04:26:54;8.80;99.90
1225;DHT22;602;48.000;7.840;2023-04-15T04:29:21;8.80;99.90
1225;DHT22;602;48.000;7.840;2023-04-15T04:31:48;8.70;99.90
1225;DHT22;602;48.000;7.840;2023-04-15T04:34:15;8.80;99.90
1225;DHT22;602;48.000;7.840;2023-04-15T04:36:43;8.80;99.90
1225;DHT22;602;48.000;7.840;2023-04-15T04:39:10;8.90;99.90
1225;DHT22;602;48.000;7.840;2023-04-15T04:41:37;9.00;99.90
1225;DHT22;602;48.000;7.840;2023-04-15T04:44:04;9.10;99.90
1225;DHT22;602;48.000;7.840;2023-04-15T04:46:31;9.20;99.90
1225;DHT22;602;48.000;7.840;2023-04-15T04:48:58;9.20;99.90
1225;DHT22;602;48.000;7.840;2023-04-15T04:51:25;9.20;99.90
1225;DHT22;602;48.000;7.840;2023-04-15T04:53:53;9.30;99.90
1225;DHT22;602;48.000;7.840;2023-04-15T04:56:21;9.30;99.90
1225;DHT22;602;48.000;7.840;2023-04-15T04:58:48;9.10;99.90
1225;DHT22;602;48.000;7.840;2023-04-15T05:01:14;9.00;99.90
1225;DHT22;602;48.000;7.840;2023-04-15T05:03:41;9.10;99.90
1225;DHT22;602;48.000;7.840;2023-04-15T05:06:08;9.00;99.90
1225;DHT22;602;48.000;7.840;2023-04-15T05:08:35;9.10;99.90
1225;DHT22;602;48.000;7.840;2023-04-15T05:11:04;9.10;99.90
1225;DHT22;602;48.000;7.840;2023-04-15T05:13:31;8.90;99.90
1225;DHT22;602;48.000;7.840;2023-04-15T05:15:57;8.90;99.90
1225;DHT22;602;48.000;7.840;2023-04-15T05:18:24;8.90;99.90
1225;DHT22;602;48.000;7.840;2023-04-15T05:20:51;9.00;99.90
1225;DHT22;602;48.000;7.840;2023-04-15T05:23:18;9.10;99.90
1225;DHT22;602;48.000;7.840;2023-04-15T05:25:45;9.30;99.90
1225;DHT22;602;48.000;7.840;2023-04-15T05:28:13;9.50;99.90
1225;DHT22;602;48.000;7.840;2023-04-15T05:30:40;9.60;99.90
1225;DHT22;602;48.000;7.840;2023-04-15T05:33:07;9.70;99.90
1225;DHT22;602;48.000;7.840;2023-04-15T05:35:34;9.70;99.90
1225;DHT22;602;48.000;7.840;2023-04-15T05:38:01;9.80;99.90
1225;DHT22;602;48.000;7.840;2023-04-15T05:40:28;9.70;99.90
1225;DHT22;602;48.000;7.840;2023-04-15T05:42:56;9.60;99.90
1225;DHT22;602;48.000;7.840;2023-04-15T05:45:24;9.50;99.90
1225;DHT22;602;48.000;7.840;2023-04-15T05:47:51;9.40;99.90
1225;DHT22;602;48.000;7.840;2023-04-15T05:50:19;9.30;99.90
1225;DHT22;602;48.000;7.840;2023-04-15T05:52:46;9.40;99.90
1225;DHT22;602;48.000;7.840;2023-04-15T05:55:13;9.60;99.90
1225;DHT22;602;48.000;7.840;2023-04-15T05:57:39;9.70;99.90
1225;DHT22;602;48.000;7.840;2023-04-15T06:00:07;9.90;99.90
1225;DHT22;602;48.000;7.840;2023-04-15T06:02:35;10.00;99.90
1225;DHT22;602;48.000;7.840;2023-04-15T06:05:03;10.00;99.90
1225;DHT22;602;48.000;7.840;2023-04-15T06:07:34;10.10;99.90
1225;DHT22;602;48.000;7.840;2023-04-15T06:10:01;10.20;99.90
1225;DHT22;602;48.000;7.840;2023-04-15T06:12:28;10.20;99.90
1225;DHT22;602;48.000;7.840;2023-04-15T06:14:55;10.30;99.90
1225;DHT22;602;48.000;7.840;2023-04-15T06:17:21;10.30;99.90
1225;DHT22;602;48.000;7.840;2023-04-15T06:19:50;10.40;99.90
1225;DHT22;602;48.000;7.840;2023-04-15T06:22:20;10.60;99.90
1225;DHT22;602;48.000;7.840;2023-04-15T06:24:47;10.60;99.90
1225;DHT22;602;48.000;7.840;2023-04-15T06:27:13;10.60;99.90
1225;DHT22;602;48.000;7.840;2023-04-15T06:29:40;10.60;99.90
1225;DHT22;602;48.000;7.840;2023-04-15T06:32:07;10.70;99.90
1225;DHT22;602;48.000;7.840;2023-04-15T06:34:34;10.90;99.90
1225;DHT22;602;48.000;7.840;2023-04-15T06:37:02;11.00;99.90
1225;DHT22;602;48.000;7.840;2023-04-15T06:39:29;10.90;99.90
1225;DHT22;602;48.000;7.840;2023-04-15T06:41:56;10.90;99.90
1225;DHT22;602;48.000;7.840;2023-04-15T06:44:23;11.10;99.90
1225;DHT22;602;48.000;7.840;2023-04-15T06:46:50;11.20;99.90
1225;DHT22;602;48.000;7.840;2023-04-15T06:49:17;11.30;99.90
1225;DHT22;602;48.000;7.840;2023-04-15T06:51:44;11.20;99.90
1225;DHT22;602;48.000;7.840;2023-04-15T06:54:12;11.30;99.90
1225;DHT22;602;48.000;7.840;2023-04-15T06:56:39;11.40;99.90
1225;DHT22;602;48.000;7.840;2023-04-15T06:59:06;11.50;99.90
1225;DHT22;602;48.000;7.840;2023-04-15T07:01:33;11.40;99.90
1225;DHT22;602;48.000;7.840;2023-04-15T07:04:00;11.40;99.90
1225;DHT22;602;48.000;7.840;2023-04-15T07:06:27;11.50;99.90
1225;DHT22;602;48.000;7.840;2023-04-15T07:08:54;11.70;99.90
1225;DHT22;602;48.000;7.840;2023-04-15T07:11:24;11.80;99.90
1225;DHT22;602;48.000;7.840;2023-04-15T07:13:51;11.90;99.90
1225;DHT22;602;48.000;7.840;2023-04-15T07:16:18;12.10;99.90
1225;DHT22;602;48.000;7.840;2023-04-15T07:18:45;12.20;99.90
1225;DHT22;602;48.000;7.840;2023-04-15T07:21:11;12.10;99.90
1225;DHT22;602;48.000;7.840;2023-04-15T07:23:38;12.10;99.90
1225;DHT22;602;48.000;7.840;2023-04-15T07:26:05;12.10;99.90
1225;DHT22;602;48.000;7.840;2023-04-15T07:28:33;12.10;99.90
1225;DHT22;602;48.000;7.840;2023-04-15T07:31:00;12.30;99.90
1225;DHT22;602;48.000;7.840;2023-04-15T07:33:27;12.30;99.90
1225;DHT22;602;48.000;7.840;2023-04-15T07:35:54;12.50;99.90
1225;DHT22;602;48.000;7.840;2023-04-15T07:38:21;12.50;99.90
1225;DHT22;602;48.000;7.840;2023-04-15T07:40:48;12.60;99.90
1225;DHT22;602;48.000;7.840;2023-04-15T07:43:15;12.60;99.90
1225;DHT22;602;48.000;7.840;2023-04-15T07:45:43;12.80;99.90
1225;DHT22;602;48.000;7.840;2023-04-15T07:48:10;12.80;99.90
1225;DHT22;602;48.000;7.840;2023-04-15T07:50:37;12.80;99.90
1225;DHT22;602;48.000;7.840;2023-04-15T07:53:04;12.70;99.90
1225;DHT22;602;48.000;7.840;2023-04-15T07:55:31;12.70;99.90
1225;DHT22;602;48.000;7.840;2023-04-15T07:57:58;12.80;99.90
1225;DHT22;602;48.000;7.840;2023-04-15T08:00:25;12.80;99.90
1225;DHT22;602;48.000;7.840;2023-04-15T08:02:55;12.80;99.90
1225;DHT22;602;48.000;7.840;2023-04-15T08:05:24;12.90;99.90
1225;DHT22;602;48.000;7.840;2023-04-15T08:07:51;13.00;99.90
1225;DHT22;602;48.000;7.840;2023-04-15T08:10:18;13.00;99.90
1225;DHT22;602;48.000;7.840;2023-04-15T08:12:45;13.10;99.90
1225;DHT22;602;48.000;7.840;2023-04-15T08:15:13;13.10;99.90
1225;DHT22;602;48.000;7.840;2023-04-15T08:17:41;13.20;99.90
1225;DHT22;602;48.000;7.840;2023-04-15T08:20:10;13.30;99.90
1225;DHT22;602;48.000;7.840;2023-04-15T08:22:37;13.30;99.90
1225;DHT22;602;48.000;7.840;2023-04-15T08:25:05;13.30;99.90
1225;DHT22;602;48.000;7.840;2023-04-15T08:27:33;13.20;99.90
1225;DHT22;602;48.000;7.840;2023-04-15T08:30:03;13.20;99.90
1225;DHT22;602;48.000;7.840;2023-04-15T08:32:30;13.10;99.90
1225;DHT22;602;48.000;7.840;2023-04-15T08:34:57;13.00;99.90
1225;DHT22;602;48.000;7.840;2023-04-15T08:37:26;13.00;99.90
1225;DHT22;602;48.000;7.840;2023-04-15T08:39:53;13.00;99.90
1225;DHT22;602;48.000;7.840;2023-04-15T08:42:25;13.00;99.90
1225;DHT22;602;48.000;7.840;2023-04-15T08:44:54;13.10;99.90
1225;DHT22;602;48.000;7.840;2023-04-15T08:47:23;13.10;99.90
1225;DHT22;602;48.000;7.840;2023-04-15T08:49:53;13.20;99.90
1225;DHT22;602;48.000;7.840;2023-04-15T08:52:20;13.10;99.90
1225;DHT22;602;48.000;7.840;2023-04-15T08:54:49;13.30;99.90
1225;DHT22;602;48.000;7.840;2023-04-15T08:57:17;13.50;99.90
1225;DHT22;602;48.000;7.840;2023-04-15T08:59:44;13.50;99.90
1225;DHT22;602;48.000;7.840;2023-04-15T09:02:11;13.80;99.90
1225;DHT22;602;48.000;7.840;2023-04-15T09:04:38;13.90;99.90
1225;DHT22;602;48.000;7.840;2023-04-15T09:07:05;14.00;99.90
1225;DHT22;602;48.000;7.840;2023-04-15T09:09:31;14.10;99.90
1225;DHT22;602;48.000;7.840;2023-04-15T09:12:00;14.30;99.90
1225;DHT22;602;48.000;7.840;2023-04-15T09:14:27;14.30;99.90
1225;DHT22;602;48.000;7.840;2023-04-15T09:16:57;14.30;99.90
1225;DHT22;602;48.000;7.840;2023-04-15T09:19:25;14.50;99.90
1225;DHT22;602;48.000;7.840;2023-04-15T09:21:53;14.70;99.90
1225;DHT22;602;48.000;7.840;2023-04-15T09:24:21;14.90;99.90
1225;DHT22;602;48.000;7.840;2023-04-15T09:26:52;14.80;99.90
1225;DHT22;602;48.000;7.840;2023-04-15T09:29:25;14.90;99.90
1225;DHT22;602;48.000;7.840;2023-04-15T09:31:52;15.00;99.90
1225;DHT22;602;48.000;7.840;2023-04-15T09:34:19;15.00;99.90
1225;DHT22;602;48.000;7.840;2023-04-15T09:36:53;15.20;99.90
1225;DHT22;602;48.000;7.840;2023-04-15T09:39:20;15.40;99.90
1225;DHT22;602;48.000;7.840;2023-04-15T09:42:03;15.60;99.90
1225;DHT22;602;48.000;7.840;2023-04-15T09:44:32;15.60;99.90
1225;DHT22;602;48.000;7.840;2023-04-15T09:46:59;15.80;99.90
1225;DHT22;602;48.000;7.840;2023-04-15T09:49:26;16.10;99.90
1225;DHT22;602;48.000;7.840;2023-04-15T09:51:57;16.10;99.90
1225;DHT22;602;48.000;7.840;2023-04-15T09:54:32;16.20;99.90
1225;DHT22;602;48.000;7.840;2023-04-15T09:57:04;16.30;99.90
1225;DHT22;602;48.000;7.840;2023-04-15T09:59:33;16.30;99.90
1225;DHT22;602;48.000;7.840;2023-04-15T10:02:03;16.60;99.90
1225;DHT22;602;48.000;7.840;2023-04-15T10:04:32;16.60;99.90
1225;DHT22;602;48.000;7.840;2023-04-15T10:07:02;16.80;99.90
1225;DHT22;602;48.000;7.840;2023-04-15T10:09:29;17.00;99.90
1225;DHT22;602;48.000;7.840;2023-04-15T10:11:57;17.10;99.90
1225;DHT22;602;48.000;7.840;2023-04-15T10:14:27;17.30;99.90
1225;DHT22;602;48.000;7.840;2023-04-15T10:16:59;17.50;99.90
1225;DHT22;602;48.000;7.840;2023-04-15T10:19:27;17.40;99.90
1225;DHT22;602;48.000;7.840;2023-04-15T10:21:57;17.30;99.90
1225;DHT22;602;48.000;7.840;2023-04-15T10:24:25;17.50;99.90
1225;DHT22;602;48.000;7.840;2023-04-15T10:26:53;17.60;99.90
1225;DHT22;602;48.000;7.840;2023-04-15T10:29:23;17.70;99.90
1225;DHT22;602;48.000;7.840;2023-04-15T10:31:51;17.90;99.90
1225;DHT22;602;48.000;7.840;2023-04-15T10:34:20;17.80;99.90
1225;DHT22;602;48.000;7.840;2023-04-15T10:36:48;17.70;99.90
1225;DHT22;602;48.000;7.840;2023-04-15T10:39:38;17.90;99.90
1225;DHT22;602;48.000;7.840;2023-04-15T10:42:06;18.20;99.90
1225;DHT22;602;48.000;7.840;2023-04-15T10:44:35;18.20;99.90
1225;DHT22;602;48.000;7.840;2023-04-15T10:47:09;18.40;99.90
1225;DHT22;602;48.000;7.840;2023-04-15T10:49:44;18.50;99.90
1225;DHT22;602;48.000;7.840;2023-04-15T10:52:11;18.70;99.90
1225;DHT22;602;48.000;7.840;2023-04-15T10:54:40;19.10;99.90
1225;DHT22;602;48.000;7.840;2023-04-15T10:57:13;19.10;99.90
1225;DHT22;602;48.000;7.840;2023-04-15T10:59:58;18.90;99.90
1225;DHT22;602;48.000;7.840;2023-04-15T11:02:38;19.10;99.90
1225;DHT22;602;48.000;7.840;2023-04-15T11:05:07;19.20;99.90
1225;DHT22;602;48.000;7.840;2023-04-15T11:07:36;19.50;99.90
1225;DHT22;602;48.000;7.840;2023-04-15T11:10:05;19.80;99.90
1225;DHT22;602;48.000;7.840;2023-04-15T11:12:52;20.10;99.90
1225;DHT22;602;48.000;7.840;2023-04-15T11:15:28;20.20;99.90
1225;DHT22;602;48.000;7.840;2023-04-15T11:17:56;20.30;99.90
1225;DHT22;602;48.000;7.840;2023-04-15T11:20:25;20.10;99.90
1225;DHT22;602;48.000;7.840;2023-04-15T11:22:53;20.10;99.90
1225;DHT22;602;48.000;7.840;2023-04-15T11:25:23;20.10;99.90
1225;DHT22;602;48.000;7.840;2023-04-15T11:27:52;20.10;99.90
1225;DHT22;602;48.000;7.840;2023-04-15T11:30:21;19.90;99.90
1225;DHT22;602;48.000;7.840;2023-04-15T11:32:49;20.00;99.90
1225;DHT22;602;48.000;7.840;2023-04-15T11:35:16;19.80;99.90
1225;DHT22;602;48.000;7.840;2023-04-15T11:37:45;19.70;99.90
1225;DHT22;602;48.000;7.840;2023-04-15T11:40:13;19.50;99.90
1225;DHT22;602;48.000;7.840;2023-04-15T11:42:42;19.50;99.90
1225;DHT22;602;48.000;7.840;2023-04-15T11:45:09;19.30;99.90
1225;DHT22;602;48.000;7.840;2023-04-15T11:47:37;19.10;99.90
1225;DHT22;602;48.000;7.840;2023-04-15T11:50:15;19.10;99.90
1225;DHT22;602;48.000;7.840;2023-04-15T11:52:52;19.00;99.90
1225;DHT22;602;48.000;7.840;2023-04-15T11:55:19;19.00;99.90
1225;DHT22;602;48.000;7.840;2023-04-15T11:57:46;18.90;99.90
1225;DHT22;602;48.000;7.840;2023-04-15T12:00:13;18.90;99.90
1225;DHT22;602;48.000;7.840;2023-04-15T12:02:42;19.00;99.90
1225;DHT22;602;48.000;7.840;2023-04-15T12:05:09;19.10;99.90
1225;DHT22;602;48.000;7.840;2023-04-15T12:07:59;18.90;99.90
1225;DHT22;602;48.000;7.840;2023-04-15T12:10:26;18.60;99.90
1225;DHT22;602;48.000;7.840;2023-04-15T12:12:53;18.60;99.90
1225;DHT22;602;48.000;7.840;2023-04-15T12:15:21;18.60;99.90
1225;DHT22;602;48.000;7.840;2023-04-15T12:17:53;18.50;99.90
1225;DHT22;602;48.000;7.840;2023-04-15T12:20:24;18.70;99.90
1225;DHT22;602;48.000;7.840;2023-04-15T12:22:51;18.80;99.90
1225;DHT22;602;48.000;7.840;2023-04-15T12:25:33;19.00;99.90
1225;DHT22;602;48.000;7.840;2023-04-15T12:27:59;19.00;99.90
1225;DHT22;602;48.000;7.840;2023-04-15T12:30:27;19.00;99.90
1225;DHT22;602;48.000;7.840;2023-04-15T12:32:54;19.00;99.90
1225;DHT22;602;48.000;7.840;2023-04-15T12:35:21;19.20;99.90
1225;DHT22;602;48.000;7.840;2023-04-15T12:37:48;19.40;99.90
1225;DHT22;602;48.000;7.840;2023-04-15T12:40:19;19.30;99.90
1225;DHT22;602;48.000;7.840;2023-04-15T12:42:46;19.40;99.90
1225;DHT22;602;48.000;7.840;2023-04-15T12:45:13;19.40;99.90
1225;DHT22;602;48.000;7.840;2023-04-15T12:47:40;19.60;99.90
1225;DHT22;602;48.000;7.840;2023-04-15T12:50:07;19.50;99.90
1225;DHT22;602;48.000;7.840;2023-04-15T12:52:34;19.80;99.90
1225;DHT22;602;48.000;7.840;2023-04-15T12:55:01;19.90;99.90
1225;DHT22;602;48.000;7.840;2023-04-15T12:57:29;20.00;99.90
1225;DHT22;602;48.000;7.840;2023-04-15T12:59:56;20.10;99.90
1225;DHT22;602;48.000;7.840;2023-04-15T13:02:23;20.10;99.90
1225;DHT22;602;48.000;7.840;2023-04-15T13:04:53;20.10;99.60
1225;DHT22;602;48.000;7.840;2023-04-15T13:07:20;20.10;99.90
1225;DHT22;602;48.000;7.840;2023-04-15T13:09:47;20.10;99.90
1225;DHT22;602;48.000;7.840;2023-04-15T13:12:13;19.90;99.90
1225;DHT22;602;48.000;7.840;2023-04-15T13:14:42;19.90;99.30
1225;DHT22;602;48.000;7.840;2023-04-15T13:17:09;20.00;99.40
1225;DHT22;602;48.000;7.840;2023-04-15T13:19:36;20.10;99.90
1225;DHT22;602;48.000;7.840;2023-04-15T13:22:02;20.20;99.90
1225;DHT22;602;48.000;7.840;2023-04-15T13:24:29;20.10;99.30
1225;DHT22;602;48.000;7.840;2023-04-15T13:26:56;20.00;99.30
1225;DHT22;602;48.000;7.840;2023-04-15T13:29:23;20.00;98.90
1225;DHT22;602;48.000;7.840;2023-04-15T13:31:51;19.90;98.50
1225;DHT22;602;48.000;7.840;2023-04-15T13:34:18;19.90;98.50
1225;DHT22;602;48.000;7.840;2023-04-15T13:36:46;19.90;98.40
1225;DHT22;602;48.000;7.840;2023-04-15T13:39:13;20.10;98.90
1225;DHT22;602;48.000;7.840;2023-04-15T13:41:40;20.20;97.10
1225;DHT22;602;48.000;7.840;2023-04-15T13:44:07;20.10;96.70
1225;DHT22;602;48.000;7.840;2023-04-15T13:46:33;19.90;96.70
1225;DHT22;602;48.000;7.840;2023-04-15T13:49:03;19.80;96.40
1225;DHT22;602;48.000;7.840;2023-04-15T13:51:30;19.90;95.60
1225;DHT22;602;48.000;7.840;2023-04-15T13:53:57;19.90;96.10
1225;DHT22;602;48.000;7.840;2023-04-15T13:56:24;19.70;94.10
1225;DHT22;602;48.000;7.840;2023-04-15T13:58:51;19.80;94.60
1225;DHT22;602;48.000;7.840;2023-04-15T14:01:19;19.80;93.30
1225;DHT22;602;48.000;7.840;2023-04-15T14:03:46;19.80;94.00
1225;DHT22;602;48.000;7.840;2023-04-15T14:06:14;19.90;93.60
1225;DHT22;602;48.000;7.840;2023-04-15T14:08:41;19.80;95.60
1225;DHT22;602;48.000;7.840;2023-04-15T14:11:08;19.70;99.90
1225;DHT22;602;48.000;7.840;2023-04-15T14:13:35;19.30;99.90
1225;DHT22;602;48.000;7.840;2023-04-15T14:16:02;19.20;99.90
1225;DHT22;602;48.000;7.840;2023-04-15T14:18:29;19.10;99.90
1225;DHT22;602;48.000;7.840;2023-04-15T14:20:56;19.00;99.90
1225;DHT22;602;48.000;7.840;2023-04-15T14:23:24;18.80;99.90
1225;DHT22;602;48.000;7.840;2023-04-15T14:25:52;18.80;99.90
1225;DHT22;602;48.000;7.840;2023-04-15T14:28:19;18.70;99.90
1225;DHT22;602;48.000;7.840;2023-04-15T14:30:46;18.70;99.90
1225;DHT22;602;48.000;7.840;2023-04-15T14:33:13;18.50;99.90
1225;DHT22;602;48.000;7.840;2023-04-15T14:35:40;18.40;99.90
1225;DHT22;602;48.000;7.840;2023-04-15T14:38:07;18.30;99.90
1225;DHT22;602;48.000;7.840;2023-04-15T14:40:36;18.40;99.90
1225;DHT22;602;48.000;7.840;2023-04-15T14:43:03;18.40;99.90
1225;DHT22;602;48.000;7.840;2023-04-15T14:45:30;18.40;99.90
1225;DHT22;602;48.000;7.840;2023-04-15T14:47:57;18.30;99.90
1225;DHT22;602;48.000;7.840;2023-04-15T14:50:24;18.40;99.90
1225;DHT22;602;48.000;7.840;2023-04-15T14:52:51;18.30;99.90
1225;DHT22;602;48.000;7.840;2023-04-15T14:55:18;18.10;99.90
1225;DHT22;602;48.000;7.840;2023-04-15T14:57:47;18.00;99.90
1225;DHT22;602;48.000;7.840;2023-04-15T15:00:14;17.90;99.90
1225;DHT22;602;48.000;7.840;2023-04-15T15:02:41;17.80;99.90
1225;DHT22;602;48.000;7.840;2023-04-15T15:05:08;17.80;99.90
1225;DHT22;602;48.000;7.840;2023-04-15T15:07:37;17.60;99.90
1225;DHT22;602;48.000;7.840;2023-04-15T15:10:05;17.60;99.90
1225;DHT22;602;48.000;7.840;2023-04-15T15:12:33;17.50;99.90
1225;DHT22;602;48.000;7.840;2023-04-15T15:15:02;17.40;99.90
1225;DHT22;602;48.000;7.840;2023-04-15T15:17:29;17.40;99.90
1225;DHT22;602;48.000;7.840;2023-04-15T15:19:56;17.40;99.90
1225;DHT22;602;48.000;7.840;2023-04-15T15:22:23;17.30;99.90
1225;DHT22;602;48.000;7.840;2023-04-15T15:24:50;17.40;99.90
1225;DHT22;602;48.000;7.840;2023-04-15T15:27:17;17.30;99.90
1225;DHT22;602;48.000;7.840;2023-04-15T15:29:44;17.20;99.90
1225;DHT22;602;48.000;7.840;2023-04-15T15:32:13;17.20;99.90
1225;DHT22;602;48.000;7.840;2023-04-15T15:34:40;17.10;99.90
1225;DHT22;602;48.000;7.840;2023-04-15T15:37:07;17.10;99.90
1225;DHT22;602;48.000;7.840;2023-04-15T15:39:34;17.10;99.90
1225;DHT22;602;48.000;7.840;2023-04-15T15:42:01;17.00;99.90
1225;DHT22;602;48.000;7.840;2023-04-15T15:44:28;16.90;99.90
1225;DHT22;602;48.000;7.840;2023-04-15T15:46:55;16.90;99.90
1225;DHT22;602;48.000;7.840;2023-04-15T15:49:23;16.90;99.90
1225;DHT22;602;48.000;7.840;2023-04-15T15:51:52;16.90;99.90
1225;DHT22;602;48.000;7.840;2023-04-15T15:54:19;16.80;99.90
1225;DHT22;602;48.000;7.840;2023-04-15T15:56:46;16.70;99.90
1225;DHT22;602;48.000;7.840;2023-04-15T15:59:13;16.70;99.90
1225;DHT22;602;48.000;7.840;2023-04-15T16:01:40;16.80;99.90
1225;DHT22;602;48.000;7.840;2023-04-15T16:04:07;16.90;99.90
1225;DHT22;602;48.000;7.840;2023-04-15T16:06:35;16.80;99.90
1225;DHT22;602;48.000;7.840;2023-04-15T16:09:02;16.70;99.90
1225;DHT22;602;48.000;7.840;2023-04-15T16:11:29;16.70;99.90
1225;DHT22;602;48.000;7.840;2023-04-15T16:13:56;16.70;99.90
1225;DHT22;602;48.000;7.840;2023-04-15T16:16:23;16.80;99.90
1225;DHT22;602;48.000;7.840;2023-04-15T16:18:50;16.80;99.90
1225;DHT22;602;48.000;7.840;2023-04-15T16:21:17;16.70;99.90
1225;DHT22;602;48.000;7.840;2023-04-15T16:23:46;16.60;99.90
1225;DHT22;602;48.000;7.840;2023-04-15T16:26:13;16.50;99.90
1225;DHT22;602;48.000;7.840;2023-04-15T16:28:39;16.50;99.90